Northampton, United Kingdom
Current Conditions -  °F | °C
As of 9:50 AM on Sunday 25 Jan 2015 (Local Time) from EGTC Reporting Station
Broken Clouds Broken Clouds  
Wind Chill: 31°   Ceiling: 2700
Heat Index: 37°   Visibility: 6mi
Dew Point: 36°   Wind: 9mph
Humidity: 93%   Direction: 240°WSW
Pressure: 30.39"   Gusts: NA
Location:  52.24°N, 0.9°W
Report Text: EGTC 250950Z 24008KT 9999 BKN027 03/02 Q1029
Loading
Personal Weather Stations






























Interactive Weather Map New forecast layout! Learn more

10-Day Weather Forecast

Advertisements
Track Severe Weather on mobile